sensor_id;sensor_type;location;lat;lon;timestamp;temperature;humidity
16976;DHT22;8604;48.148;-1.786;2024-02-26T00:01:40;8.30;99.90
16976;DHT22;8604;48.148;-1.786;2024-02-26T00:04:11;8.30;99.90
16976;DHT22;8604;48.148;-1.786;2024-02-26T00:06:41;8.30;99.90
16976;DHT22;8604;48.148;-1.786;2024-02-26T00:09:10;8.30;99.90
16976;DHT22;8604;48.148;-1.786;2024-02-26T00:11:39;8.30;99.90
16976;DHT22;8604;48.148;-1.786;2024-02-26T00:14:07;8.40;99.90
16976;DHT22;8604;48.148;-1.786;2024-02-26T00:16:35;8.30;99.90
16976;DHT22;8604;48.148;-1.786;2024-02-26T00:19:04;8.30;99.90
16976;DHT22;8604;48.148;-1.786;2024-02-26T00:21:32;8.30;99.90
16976;DHT22;8604;48.148;-1.786;2024-02-26T00:24:02;8.30;99.90
16976;DHT22;8604;48.148;-1.786;2024-02-26T00:26:31;8.30;99.90
16976;DHT22;8604;48.148;-1.786;2024-02-26T00:28:59;8.30;99.90
16976;DHT22;8604;48.148;-1.786;2024-02-26T00:31:28;8.30;99.90
16976;DHT22;8604;48.148;-1.786;2024-02-26T00:33:56;8.30;99.90
16976;DHT22;8604;48.148;-1.786;2024-02-26T00:36:25;8.30;99.90
16976;DHT22;8604;48.148;-1.786;2024-02-26T00:38:53;8.30;99.90
16976;DHT22;8604;48.148;-1.786;2024-02-26T00:41:23;8.30;99.90
16976;DHT22;8604;48.148;-1.786;2024-02-26T00:43:52;8.30;99.90
16976;DHT22;8604;48.148;-1.786;2024-02-26T00:46:20;8.30;99.90
16976;DHT22;8604;48.148;-1.786;2024-02-26T00:48:49;8.30;99.90
16976;DHT22;8604;48.148;-1.786;2024-02-26T00:51:17;8.30;99.90
16976;DHT22;8604;48.148;-1.786;2024-02-26T00:53:49;8.30;99.90
16976;DHT22;8604;48.148;-1.786;2024-02-26T00:56:17;8.30;99.90
16976;DHT22;8604;48.148;-1.786;2024-02-26T00:58:47;8.30;99.90
16976;DHT22;8604;48.148;-1.786;2024-02-26T01:01:15;8.40;99.90
16976;DHT22;8604;48.148;-1.786;2024-02-26T01:03:45;8.30;99.90
16976;DHT22;8604;48.148;-1.786;2024-02-26T01:06:13;8.40;99.90
16976;DHT22;8604;48.148;-1.786;2024-02-26T01:08:44;8.30;99.90
16976;DHT22;8604;48.148;-1.786;2024-02-26T01:11:13;8.40;99.90
16976;DHT22;8604;48.148;-1.786;2024-02-26T01:13:41;8.30;99.90
16976;DHT22;8604;48.148;-1.786;2024-02-26T01:16:11;8.40;99.90
16976;DHT22;8604;48.148;-1.786;2024-02-26T01:18:40;8.30;99.90
16976;DHT22;8604;48.148;-1.786;2024-02-26T01:21:09;8.30;99.90
16976;DHT22;8604;48.148;-1.786;2024-02-26T01:23:37;8.30;99.90
16976;DHT22;8604;48.148;-1.786;2024-02-26T01:26:05;8.30;99.90
16976;DHT22;8604;48.148;-1.786;2024-02-26T01:28:34;8.30;99.90
16976;DHT22;8604;48.148;-1.786;2024-02-26T01:31:02;8.30;99.90
16976;DHT22;8604;48.148;-1.786;2024-02-26T01:33:34;8.30;99.90
16976;DHT22;8604;48.148;-1.786;2024-02-26T01:36:03;8.40;99.90
16976;DHT22;8604;48.148;-1.786;2024-02-26T01:38:31;8.30;99.90
16976;DHT22;8604;48.148;-1.786;2024-02-26T01:41:00;8.30;99.90
16976;DHT22;8604;48.148;-1.786;2024-02-26T01:43:28;8.30;99.90
16976;DHT22;8604;48.148;-1.786;2024-02-26T01:45:56;8.30;99.90
16976;DHT22;8604;48.148;-1.786;2024-02-26T01:48:25;8.30;99.90
16976;DHT22;8604;48.148;-1.786;2024-02-26T01:50:55;8.30;99.90
16976;DHT22;8604;48.148;-1.786;2024-02-26T01:53:24;8.30;99.90
16976;DHT22;8604;48.148;-1.786;2024-02-26T01:55:53;8.30;99.90
16976;DHT22;8604;48.148;-1.786;2024-02-26T01:58:21;8.30;99.90
16976;DHT22;8604;48.148;-1.786;2024-02-26T02:00:49;8.30;99.90
16976;DHT22;8604;48.148;-1.786;2024-02-26T02:03:18;8.30;99.90
16976;DHT22;8604;48.148;-1.786;2024-02-26T02:05:46;8.20;99.90
16976;DHT22;8604;48.148;-1.786;2024-02-26T02:08:16;8.20;99.90
16976;DHT22;8604;48.148;-1.786;2024-02-26T02:10:45;8.30;99.90
16976;DHT22;8604;48.148;-1.786;2024-02-26T02:13:16;8.20;99.90
16976;DHT22;8604;48.148;-1.786;2024-02-26T02:15:45;8.20;99.90
16976;DHT22;8604;48.148;-1.786;2024-02-26T02:18:13;8.20;99.90
16976;DHT22;8604;48.148;-1.786;2024-02-26T02:20:43;8.20;99.90
16976;DHT22;8604;48.148;-1.786;2024-02-26T02:23:12;8.20;99.90
16976;DHT22;8604;48.148;-1.786;2024-02-26T02:25:41;8.20;99.90
16976;DHT22;8604;48.148;-1.786;2024-02-26T02:28:09;8.20;99.90
16976;DHT22;8604;48.148;-1.786;2024-02-26T02:30:38;8.20;99.90
16976;DHT22;8604;48.148;-1.786;2024-02-26T02:33:07;8.20;99.90
16976;DHT22;8604;48.148;-1.786;2024-02-26T02:35:35;8.20;99.90
16976;DHT22;8604;48.148;-1.786;2024-02-26T02:38:05;8.30;99.90
16976;DHT22;8604;48.148;-1.786;2024-02-26T02:40:34;8.20;99.90
16976;DHT22;8604;48.148;-1.786;2024-02-26T02:43:02;8.20;99.90
16976;DHT22;8604;48.148;-1.786;2024-02-26T02:45:31;8.20;99.90
16976;DHT22;8604;48.148;-1.786;2024-02-26T02:48:00;8.20;99.90
16976;DHT22;8604;48.148;-1.786;2024-02-26T02:50:29;8.20;99.90
16976;DHT22;8604;48.148;-1.786;2024-02-26T02:52:57;8.20;99.90
16976;DHT22;8604;48.148;-1.786;2024-02-26T02:55:27;8.20;99.90
16976;DHT22;8604;48.148;-1.786;2024-02-26T02:57:55;8.20;99.90
16976;DHT22;8604;48.148;-1.786;2024-02-26T03:00:24;8.20;99.90
16976;DHT22;8604;48.148;-1.786;2024-02-26T03:02:52;8.20;99.90
16976;DHT22;8604;48.148;-1.786;2024-02-26T03:05:21;8.20;99.90
16976;DHT22;8604;48.148;-1.786;2024-02-26T03:07:49;8.10;99.90
16976;DHT22;8604;48.148;-1.786;2024-02-26T03:10:18;8.10;99.90
16976;DHT22;8604;48.148;-1.786;2024-02-26T03:12:48;8.20;99.90
16976;DHT22;8604;48.148;-1.786;2024-02-26T03:15:16;8.20;99.90
16976;DHT22;8604;48.148;-1.786;2024-02-26T03:17:45;8.20;99.90
16976;DHT22;8604;48.148;-1.786;2024-02-26T03:20:14;8.20;99.90
16976;DHT22;8604;48.148;-1.786;2024-02-26T03:22:42;8.20;99.90
16976;DHT22;8604;48.148;-1.786;2024-02-26T03:25:11;8.20;99.90
16976;DHT22;8604;48.148;-1.786;2024-02-26T03:27:39;8.10;99.90
16976;DHT22;8604;48.148;-1.786;2024-02-26T03:30:10;8.20;99.90
16976;DHT22;8604;48.148;-1.786;2024-02-26T03:32:38;8.20;99.90
16976;DHT22;8604;48.148;-1.786;2024-02-26T03:35:08;8.10;99.90
16976;DHT22;8604;48.148;-1.786;2024-02-26T03:37:36;8.20;99.90
16976;DHT22;8604;48.148;-1.786;2024-02-26T03:40:06;8.20;99.90
16976;DHT22;8604;48.148;-1.786;2024-02-26T03:42:35;8.20;99.90
16976;DHT22;8604;48.148;-1.786;2024-02-26T03:45:03;8.20;99.90
16976;DHT22;8604;48.148;-1.786;2024-02-26T03:47:33;8.20;99.90
16976;DHT22;8604;48.148;-1.786;2024-02-26T03:50:02;8.20;99.90
16976;DHT22;8604;48.148;-1.786;2024-02-26T03:52:32;8.20;99.90
16976;DHT22;8604;48.148;-1.786;2024-02-26T03:55:01;8.20;99.90
16976;DHT22;8604;48.148;-1.786;2024-02-26T03:57:29;8.20;99.90
16976;DHT22;8604;48.148;-1.786;2024-02-26T03:59:57;8.20;99.90
16976;DHT22;8604;48.148;-1.786;2024-02-26T04:02:26;8.20;99.90
16976;DHT22;8604;48.148;-1.786;2024-02-26T04:04:56;8.20;99.90
16976;DHT22;8604;48.148;-1.786;2024-02-26T04:07:24;8.20;99.90
16976;DHT22;8604;48.148;-1.786;2024-02-26T04:09:53;8.20;99.90
16976;DHT22;8604;48.148;-1.786;2024-02-26T04:12:21;8.20;99.90
16976;DHT22;8604;48.148;-1.786;2024-02-26T04:14:50;8.20;99.90
16976;DHT22;8604;48.148;-1.786;2024-02-26T04:17:18;8.20;99.90
16976;DHT22;8604;48.148;-1.786;2024-02-26T04:19:47;8.20;99.90
16976;DHT22;8604;48.148;-1.786;2024-02-26T04:22:16;8.20;99.90
16976;DHT22;8604;48.148;-1.786;2024-02-26T04:24:45;8.20;99.90
16976;DHT22;8604;48.148;-1.786;2024-02-26T04:27:13;8.20;99.90
16976;DHT22;8604;48.148;-1.786;2024-02-26T04:29:42;8.20;99.90
16976;DHT22;8604;48.148;-1.786;2024-02-26T04:32:10;8.20;99.90
16976;DHT22;8604;48.148;-1.786;2024-02-26T04:34:39;8.20;99.90
16976;DHT22;8604;48.148;-1.786;2024-02-26T04:37:07;8.20;99.90
16976;DHT22;8604;48.148;-1.786;2024-02-26T04:39:37;8.20;99.90
16976;DHT22;8604;48.148;-1.786;2024-02-26T04:42:06;8.10;99.90
16976;DHT22;8604;48.148;-1.786;2024-02-26T04:44:34;8.10;99.90
16976;DHT22;8604;48.148;-1.786;2024-02-26T04:47:03;8.10;99.90
16976;DHT22;8604;48.148;-1.786;2024-02-26T04:49:31;8.10;99.90
16976;DHT22;8604;48.148;-1.786;2024-02-26T04:52:00;8.10;99.90
16976;DHT22;8604;48.148;-1.786;2024-02-26T04:54:28;8.00;99.90
16976;DHT22;8604;48.148;-1.786;2024-02-26T04:56:58;8.10;99.90
16976;DHT22;8604;48.148;-1.786;2024-02-26T04:59:26;8.10;99.90
16976;DHT22;8604;48.148;-1.786;2024-02-26T05:01:55;8.00;99.90
16976;DHT22;8604;48.148;-1.786;2024-02-26T05:04:23;8.00;99.90
16976;DHT22;8604;48.148;-1.786;2024-02-26T05:06:52;8.00;99.90
16976;DHT22;8604;48.148;-1.786;2024-02-26T05:09:20;8.00;99.90
16976;DHT22;8604;48.148;-1.786;2024-02-26T05:11:49;8.00;99.90
16976;DHT22;8604;48.148;-1.786;2024-02-26T05:14:19;8.00;99.90
16976;DHT22;8604;48.148;-1.786;2024-02-26T05:16:48;8.00;99.90
16976;DHT22;8604;48.148;-1.786;2024-02-26T05:19:17;8.00;99.90
16976;DHT22;8604;48.148;-1.786;2024-02-26T05:21:45;8.00;99.90
16976;DHT22;8604;48.148;-1.786;2024-02-26T05:24:16;8.00;99.90
16976;DHT22;8604;48.148;-1.786;2024-02-26T05:26:45;8.00;99.90
16976;DHT22;8604;48.148;-1.786;2024-02-26T05:29:14;8.00;99.90
16976;DHT22;8604;48.148;-1.786;2024-02-26T05:31:44;8.00;99.90
16976;DHT22;8604;48.148;-1.786;2024-02-26T05:34:12;8.00;99.90
16976;DHT22;8604;48.148;-1.786;2024-02-26T05:36:41;8.00;99.90
16976;DHT22;8604;48.148;-1.786;2024-02-26T05:39:09;8.00;99.90
16976;DHT22;8604;48.148;-1.786;2024-02-26T05:41:44;8.00;99.90
16976;DHT22;8604;48.148;-1.786;2024-02-26T05:44:12;8.00;99.90
16976;DHT22;8604;48.148;-1.786;2024-02-26T05:46:42;7.90;99.90
16976;DHT22;8604;48.148;-1.786;2024-02-26T05:49:11;7.90;99.90
16976;DHT22;8604;48.148;-1.786;2024-02-26T05:51:40;7.90;99.90
16976;DHT22;8604;48.148;-1.786;2024-02-26T05:54:08;7.90;99.90
16976;DHT22;8604;48.148;-1.786;2024-02-26T05:56:37;7.80;99.90
16976;DHT22;8604;48.148;-1.786;2024-02-26T05:59:06;7.80;99.90
16976;DHT22;8604;48.148;-1.786;2024-02-26T06:01:34;7.80;99.90
16976;DHT22;8604;48.148;-1.786;2024-02-26T06:04:03;7.80;99.90
16976;DHT22;8604;48.148;-1.786;2024-02-26T06:06:33;7.80;99.90
16976;DHT22;8604;48.148;-1.786;2024-02-26T06:09:01;7.80;99.90
16976;DHT22;8604;48.148;-1.786;2024-02-26T06:11:32;7.80;99.90
16976;DHT22;8604;48.148;-1.786;2024-02-26T06:14:00;7.80;99.90
16976;DHT22;8604;48.148;-1.786;2024-02-26T06:16:30;7.80;99.90
16976;DHT22;8604;48.148;-1.786;2024-02-26T06:18:59;7.70;99.90
16976;DHT22;8604;48.148;-1.786;2024-02-26T06:21:28;7.70;99.90
16976;DHT22;8604;48.148;-1.786;2024-02-26T06:23:57;7.70;99.90
16976;DHT22;8604;48.148;-1.786;2024-02-26T06:26:26;7.70;99.90
16976;DHT22;8604;48.148;-1.786;2024-02-26T06:28:56;7.70;99.90
16976;DHT22;8604;48.148;-1.786;2024-02-26T06:31:24;7.60;99.90
16976;DHT22;8604;48.148;-1.786;2024-02-26T06:33:54;7.60;99.90
16976;DHT22;8604;48.148;-1.786;2024-02-26T06:36:24;7.60;99.90
16976;DHT22;8604;48.148;-1.786;2024-02-26T06:38:53;7.60;99.90
16976;DHT22;8604;48.148;-1.786;2024-02-26T06:41:23;7.60;99.90
16976;DHT22;8604;48.148;-1.786;2024-02-26T06:43:54;7.60;99.90
16976;DHT22;8604;48.148;-1.786;2024-02-26T09:03:58;7.10;99.90
16976;DHT22;8604;48.148;-1.786;2024-02-26T09:18:34;7.10;99.90
16976;DHT22;8604;48.148;-1.786;2024-02-26T09:21:26;7.10;99.90
16976;DHT22;8604;48.148;-1.786;2024-02-26T09:24:17;7.10;99.90
16976;DHT22;8604;48.148;-1.786;2024-02-26T09:26:53;7.10;99.90
16976;DHT22;8604;48.148;-1.786;2024-02-26T09:29:28;7.00;99.90
16976;DHT22;8604;48.148;-1.786;2024-02-26T09:32:01;7.10;99.90
16976;DHT22;8604;48.148;-1.786;2024-02-26T09:34:29;7.20;99.90
16976;DHT22;8604;48.148;-1.786;2024-02-26T09:37:02;7.20;99.90
16976;DHT22;8604;48.148;-1.786;2024-02-26T09:39:52;7.20;99.90
16976;DHT22;8604;48.148;-1.786;2024-02-26T09:42:26;7.20;99.90
16976;DHT22;8604;48.148;-1.786;2024-02-26T09:45:00;7.30;99.90
16976;DHT22;8604;48.148;-1.786;2024-02-26T09:47:47;7.40;99.90
16976;DHT22;8604;48.148;-1.786;2024-02-26T09:51:08;7.40;99.90
16976;DHT22;8604;48.148;-1.786;2024-02-26T09:53:51;7.40;99.90
16976;DHT22;8604;48.148;-1.786;2024-02-26T09:56:48;7.40;99.90
16976;DHT22;8604;48.148;-1.786;2024-02-26T09:59:39;7.40;99.90
16976;DHT22;8604;48.148;-1.786;2024-02-26T10:02:37;7.40;99.90
16976;DHT22;8604;48.148;-1.786;2024-02-26T10:05:46;7.40;99.90
16976;DHT22;8604;48.148;-1.786;2024-02-26T10:40:53;7.50;99.90
16976;DHT22;8604;48.148;-1.786;2024-02-26T10:44:18;7.40;99.90
16976;DHT22;8604;48.148;-1.786;2024-02-26T10:51:27;7.40;99.90
16976;DHT22;8604;48.148;-1.786;2024-02-26T10:54:58;7.40;99.90
16976;DHT22;8604;48.148;-1.786;2024-02-26T10:58:01;7.40;99.90
16976;DHT22;8604;48.148;-1.786;2024-02-26T11:00:57;7.50;99.90
16976;DHT22;8604;48.148;-1.786;2024-02-26T11:03:50;7.50;99.90
16976;DHT22;8604;48.148;-1.786;2024-02-26T11:06:26;7.50;99.90
16976;DHT22;8604;48.148;-1.786;2024-02-26T11:12:44;7.40;99.90
16976;DHT22;8604;48.148;-1.786;2024-02-26T11:29:03;7.40;99.90
16976;DHT22;8604;48.148;-1.786;2024-02-26T11:31:44;7.50;99.90
16976;DHT22;8604;48.148;-1.786;2024-02-26T11:34:56;7.40;99.90
16976;DHT22;8604;48.148;-1.786;2024-02-26T11:37:53;7.50;99.90
16976;DHT22;8604;48.148;-1.786;2024-02-26T11:49:05;7.60;99.90
16976;DHT22;8604;48.148;-1.786;2024-02-26T11:52:07;7.60;99.90
16976;DHT22;8604;48.148;-1.786;2024-02-26T15:11:12;7.40;99.90
16976;DHT22;8604;48.148;-1.786;2024-02-26T15:13:42;7.40;99.90
16976;DHT22;8604;48.148;-1.786;2024-02-26T15:16:22;7.50;99.90
16976;DHT22;8604;48.148;-1.786;2024-02-26T15:19:02;7.40;99.90
16976;DHT22;8604;48.148;-1.786;2024-02-26T15:24:43;7.50;99.90
16976;DHT22;8604;48.148;-1.786;2024-02-26T15:27:18;7.50;99.90
16976;DHT22;8604;48.148;-1.786;2024-02-26T17:26:16;7.20;99.90
16976;DHT22;8604;48.148;-1.786;2024-02-26T17:28:48;7.10;99.90
16976;DHT22;8604;48.148;-1.786;2024-02-26T17:31:28;7.10;99.90
16976;DHT22;8604;48.148;-1.786;2024-02-26T17:34:01;7.10;99.90
16976;DHT22;8604;48.148;-1.786;2024-02-26T17:37:05;7.10;99.90
16976;DHT22;8604;48.148;-1.786;2024-02-26T17:39:37;7.10;99.90
16976;DHT22;8604;48.148;-1.786;2024-02-26T17:42:08;7.10;99.90
16976;DHT22;8604;48.148;-1.786;2024-02-26T17:44:57;7.00;99.90
16976;DHT22;8604;48.148;-1.786;2024-02-26T17:47:34;7.00;99.90
16976;DHT22;8604;48.148;-1.786;2024-02-26T17:50:17;7.00;99.90
16976;DHT22;8604;48.148;-1.786;2024-02-26T17:52:53;7.00;99.90
16976;DHT22;8604;48.148;-1.786;2024-02-26T17:55:28;7.00;99.90
16976;DHT22;8604;48.148;-1.786;2024-02-26T17:58:25;7.00;99.90
16976;DHT22;8604;48.148;-1.786;2024-02-26T18:01:09;6.90;99.90
16976;DHT22;8604;48.148;-1.786;2024-02-26T18:03:59;6.90;99.90
16976;DHT22;8604;48.148;-1.786;2024-02-26T18:07:22;6.90;99.90
16976;DHT22;8604;48.148;-1.786;2024-02-26T18:10:10;6.90;99.90
16976;DHT22;8604;48.148;-1.786;2024-02-26T18:13:58;6.90;99.90
16976;DHT22;8604;48.148;-1.786;2024-02-26T18:17:27;6.80;99.90
16976;DHT22;8604;48.148;-1.786;2024-02-26T18:19:58;6.80;99.90
16976;DHT22;8604;48.148;-1.786;2024-02-26T18:22:47;6.80;99.90
16976;DHT22;8604;48.148;-1.786;2024-02-26T18:25:52;6.80;99.90
16976;DHT22;8604;48.148;-1.786;2024-02-26T22:35:37;6.60;99.90
16976;DHT22;8604;48.148;-1.786;2024-02-26T22:38:05;6.50;99.90
16976;DHT22;8604;48.148;-1.786;2024-02-26T22:40:33;6.50;99.90
16976;DHT22;8604;48.148;-1.786;2024-02-26T22:43:02;6.50;99.90
16976;DHT22;8604;48.148;-1.786;2024-02-26T22:45:31;6.50;99.90
16976;DHT22;8604;48.148;-1.786;2024-02-26T22:47:59;6.50;99.90
16976;DHT22;8604;48.148;-1.786;2024-02-26T22:50:28;6.50;99.90
16976;DHT22;8604;48.148;-1.786;2024-02-26T22:52:58;6.40;99.90
16976;DHT22;8604;48.148;-1.786;2024-02-26T22:55:26;6.40;99.90
16976;DHT22;8604;48.148;-1.786;2024-02-26T22:57:55;6.40;99.90
16976;DHT22;8604;48.148;-1.786;2024-02-26T23:00:24;6.40;99.90
16976;DHT22;8604;48.148;-1.786;2024-02-26T23:02:54;6.40;99.90
16976;DHT22;8604;48.148;-1.786;2024-02-26T23:05:24;6.40;99.90
16976;DHT22;8604;48.148;-1.786;2024-02-26T23:07:53;6.40;99.90
16976;DHT22;8604;48.148;-1.786;2024-02-26T23:10:24;6.40;99.90
16976;DHT22;8604;48.148;-1.786;2024-02-26T23:12:52;6.40;99.90
16976;DHT22;8604;48.148;-1.786;2024-02-26T23:15:21;6.40;99.90
16976;DHT22;8604;48.148;-1.786;2024-02-26T23:17:49;6.40;99.90
16976;DHT22;8604;48.148;-1.786;2024-02-26T23:20:21;6.40;99.90
16976;DHT22;8604;48.148;-1.786;2024-02-26T23:22:50;6.40;99.90
16976;DHT22;8604;48.148;-1.786;2024-02-26T23:25:18;6.40;99.90
16976;DHT22;8604;48.148;-1.786;2024-02-26T23:27:48;6.40;99.90
16976;DHT22;8604;48.148;-1.786;2024-02-26T23:30:17;6.40;99.90
16976;DHT22;8604;48.148;-1.786;2024-02-26T23:32:46;6.40;99.90
16976;DHT22;8604;48.148;-1.786;2024-02-26T23:35:15;6.40;99.90
16976;DHT22;8604;48.148;-1.786;2024-02-26T23:37:43;6.30;99.90
16976;DHT22;8604;48.148;-1.786;2024-02-26T23:40:12;6.30;99.90
16976;DHT22;8604;48.148;-1.786;2024-02-26T23:42:40;6.30;99.90
16976;DHT22;8604;48.148;-1.786;2024-02-26T23:45:10;6.30;99.90
16976;DHT22;8604;48.148;-1.786;2024-02-26T23:47:39;6.30;99.90
16976;DHT22;8604;48.148;-1.786;2024-02-26T23:50:08;6.20;99.90
16976;DHT22;8604;48.148;-1.786;2024-02-26T23:52:36;6.20;99.90
16976;DHT22;8604;48.148;-1.786;2024-02-26T23:55:05;6.20;99.90
16976;DHT22;8604;48.148;-1.786;2024-02-26T23:57:33;6.20;99.90
